首页
METAR-TAF:

METAR-TAF

机场 :

Stillwater, 奧克拉荷馬州, 美国

纬度: 36-09-44N, 经度: 097-05-21W, 海拔: 300米

当前天气观测

该预报发布于1小时和3分钟前的16:53 UTC
风速13节,风向南转南东
温度 33°C
湿度 44%
气压 1013 hPa
能見度: 16.1公里
天空无云

METAR: KSWO 151653Z 16013KT 10SM CLR 33/19 A2991 RMK AO2 SLP113 T03330189

时间: 12:56 (17:56 UTC)

预报

该预报发布于33分钟前的17:23 UTC
预报有效从15日的 18点(UTC)到 16日的 18点(UTC)
风速13节,风向,有时为20节阵风
能見度: 10公里
散云层高于25000英尺
从 16日的 0100点(UTC)
风速11节,风向南转南东
能見度: 10公里
多云层高于25000英尺
从 16日的 1400点(UTC)
风速14节,风向,有时为22节阵风
能見度: 10公里
多云层高于25000英尺

TAF: KSWO 151723Z 1518/1618 17013G20KT P6SM SCT250 FM160100 16011KT P6SM BKN250 FM161400 18014G22KT P6SM BKN250

超过4000个机场的气象观测和天气预报(METAR&TAF报告)。

可查询的气象台以黄色和红色小点在地图上表示。

将鼠标移到小点上方,可查看气象台名称。

然后点击查看天气观测和预报。

如需切换地图:点击带黑十字的绿色按钮放大地图;点击带横线的绿色按钮缩小地图;或者点击绿色箭头查看邻近地区的地图。


METAR-TAF: